Airfield :
LOGIN :

Register | Disclaimer

   EN    FR    IT 

 










Legend :    VFR   Marginal VFR   IFR   Intensive IFR   Very Intensive IFR
Visi :
Ceiling :
>= 8 km
>= 3000ft
5 to 8 km
1000 to 3000 ft
1500m to 5 km
500 to 1000 ft
800 to 1500m
200 to 500 ft
< 800m
< 200 ft
Symbols :   Thunderstorms  Fog  Heavy snow  Heavy precipitations  Wind > 20 kt
SIGMETs :     Misc.  Thunderstorms  Icing  Turbulence  Mountain Waves  Volcanic Ashes






- Airport Elevation : 20 ft


EBFN - Koksijde

CURRENT METAR :
  • 112355Z AUTO 23007KT 9999 BKN019/// 05/04 Q1003 WHT

EXPIRED METARs :
  • 112325Z AUTO 23007KT 9999 BKN020/// BKN120/// 05/04 Q1003 WHT
  • 112322Z AUTO 23007KT 9999 BKN022/// BKN120/// 05/04 Q1003 WHT
  • 112255Z AUTO 23008KT 9999 BKN038/// BKN120/// BKN140/// 05/04 Q1003 BLU
  • 112247Z AUTO 23009KT 9999 BKN040/// BKN110/// 05/04 Q1003 BLU
  • 112225Z AUTO 23007KT 9999 BKN023/// BKN110/// 05/04 Q1003 WHT
  • 112212Z AUTO 23008KT 9999 BKN024/// 05/04 Q1003 WHT
  • 112155Z AUTO 22008KT 9999 -DZ BKN030/// 05/04 Q1003 BLU
  • 112125Z AUTO 21007KT 9999 FEW027/// BKN079/// 05/03 Q1003 BLU
  • 112055Z AUTO 20008KT 9999 FEW032/// OVC062/// 05/04 Q1003 BLU

TAF TAF EBFN
Valid from the 11 at 19:00 until the 12 at 07:00 UTC


111541Z 1119/1207 24007KT 9999 FEW020 SCT190
TEMPO 1119/1203 24013G23KT 5000 -SHRA FEW013 BKN018
PROB30
TEMPO 1119/1203 4000 -SHRA FEW010 BKN013
BECMG 1203/1205 22007KT 5000 BR FEW015
PROB30
TEMPO 1205/1207 3000 BR



MET'MAP, your aeronautical weather chart ! - Copyright ORBIFLY December 2007 - Disclaimer

ORBIFLY MET'MAP TEAM :

Programming & Development : Alexandra Zaïnal
Concept & original design : Baudouin d'Aumeries
Assistance for programming : Marc-Olivier Méhu
Technical & hardware support : Manuel Goepfert

Contact : metmap@orbifly.com




SOURCES & CREDITS :

   NOAA